createdAt,value
2023-02-21T00:01:36.290Z,10.20
2023-02-21T00:04:56.946Z,10.20
2023-02-21T00:08:17.591Z,10.10
2023-02-21T00:11:38.167Z,10.10
2023-02-21T00:14:58.643Z,10.10
2023-02-21T00:18:19.092Z,10.10
2023-02-21T00:21:40.227Z,10.10
2023-02-21T00:25:00.885Z,10.20
2023-02-21T00:28:21.473Z,10.10
2023-02-21T00:31:41.988Z,10.10
2023-02-21T00:35:02.683Z,10.10
2023-02-21T00:38:26.136Z,10.10
2023-02-21T00:41:47.517Z,10.10
2023-02-21T00:45:08.245Z,10.10
2023-02-21T00:48:28.978Z,10.10
2023-02-21T00:51:49.787Z,10.10
2023-02-21T00:55:10.537Z,10.10
2023-02-21T00:58:31.140Z,10.10
2023-02-21T01:01:51.625Z,10.10
2023-02-21T01:05:12.769Z,10.10
2023-02-21T01:08:34.023Z,10.10
2023-02-21T01:11:54.651Z,10.10
2023-02-21T01:15:15.892Z,10.10
2023-02-21T01:18:36.452Z,10.10
2023-02-21T01:21:57.075Z,10.10
2023-02-21T01:25:17.717Z,10.10
2023-02-21T01:28:38.758Z,10.10
2023-02-21T01:31:59.330Z,10.10
2023-02-21T01:35:19.932Z,10.10
2023-02-21T01:38:40.609Z,10.00
2023-02-21T01:42:03.186Z,10.00
2023-02-21T01:45:42.140Z,10.10
2023-02-21T01:49:03.198Z,10.00
2023-02-21T01:52:24.343Z,10.00
2023-02-21T01:55:45.669Z,10.10
2023-02-21T01:59:09.787Z,10.00
2023-02-21T02:02:52.617Z,10.00
2023-02-21T02:06:23.136Z,10.00
2023-02-21T02:09:43.688Z,10.00
2023-02-21T02:13:13.224Z,10.00
2023-02-21T02:16:44.830Z,10.00
2023-02-21T02:20:15.538Z,10.00
2023-02-21T02:23:29.688Z,10.00
2023-02-21T02:26:31.885Z,10.00
2023-02-21T02:29:55.540Z,10.00
2023-02-21T02:33:28.072Z,10.00
2023-02-21T02:36:43.263Z,10.00
2023-02-21T02:39:54.184Z,10.00
2023-02-21T02:43:06.387Z,10.00
2023-02-21T02:46:18.159Z,10.00
2023-02-21T02:49:25.218Z,10.00
2023-02-21T02:52:27.562Z,10.00
2023-02-21T02:56:07.156Z,10.00
2023-02-21T02:59:14.333Z,9.90
2023-02-21T03:02:19.938Z,10.00
2023-02-21T03:05:36.993Z,9.90
2023-02-21T03:09:05.421Z,10.00
2023-02-21T03:12:29.735Z,9.90
2023-02-21T03:15:56.830Z,9.90
2023-02-21T03:19:24.989Z,9.90
2023-02-21T03:22:30.899Z,9.90
2023-02-21T03:25:35.596Z,9.90
2023-02-21T03:28:40.708Z,9.90
2023-02-21T03:32:21.566Z,9.90
2023-02-21T03:35:24.124Z,9.90
2023-02-21T03:38:29.576Z,9.90
2023-02-21T03:41:32.614Z,9.90
2023-02-21T03:44:35.095Z,9.90
2023-02-21T03:47:37.437Z,9.90
2023-02-21T03:50:40.114Z,9.90
2023-02-21T03:53:42.485Z,9.90
2023-02-21T03:56:46.872Z,9.90
2023-02-21T04:00:13.269Z,9.90
2023-02-21T04:03:18.377Z,9.90
2023-02-21T04:06:27.531Z,9.90
2023-02-21T04:09:30.695Z,9.90
2023-02-21T04:12:33.102Z,9.90
2023-02-21T04:15:35.414Z,9.90
2023-02-21T04:18:37.907Z,9.90
2023-02-21T04:21:42.435Z,9.90
2023-02-21T04:24:45.441Z,9.90
2023-02-21T04:27:49.728Z,9.90
2023-02-21T04:30:52.517Z,9.90
2023-02-21T04:34:10.584Z,9.80
2023-02-21T04:37:15.565Z,9.90
2023-02-21T04:40:18.858Z,9.90
2023-02-21T04:43:21.897Z,9.80
2023-02-21T04:46:24.111Z,9.80
2023-02-21T04:49:27.702Z,9.80
2023-02-21T04:52:29.942Z,9.80
2023-02-21T04:55:32.205Z,9.80
2023-02-21T04:58:44.701Z,9.80
2023-02-21T05:01:47.989Z,9.80
2023-02-21T05:04:50.174Z,9.80
2023-02-21T05:07:52.522Z,9.80
2023-02-21T05:10:55.132Z,9.80
2023-02-21T05:13:57.303Z,9.80
2023-02-21T05:16:59.424Z,9.80
2023-02-21T05:20:02.160Z,9.80
2023-02-21T05:23:13.009Z,9.80
2023-02-21T05:26:16.204Z,9.80
2023-02-21T05:29:18.995Z,9.80
2023-02-21T05:32:22.399Z,9.80
2023-02-21T05:35:24.682Z,9.80
2023-02-21T05:38:27.413Z,9.80
2023-02-21T05:41:29.780Z,9.80
2023-02-21T05:44:31.954Z,9.80
2023-02-21T05:47:35.211Z,9.80
2023-02-21T05:50:39.686Z,9.80
2023-02-21T05:53:42.008Z,9.80
2023-02-21T05:56:45.589Z,9.80
2023-02-21T05:59:50.814Z,9.70
2023-02-21T06:02:53.098Z,9.70
2023-02-21T06:05:55.295Z,9.70
2023-02-21T06:08:57.449Z,9.70
2023-02-21T06:11:59.704Z,9.70
2023-02-21T06:15:02.112Z,9.70
2023-02-21T06:18:04.639Z,9.70
2023-02-21T06:21:06.882Z,9.70
2023-02-21T06:24:10.840Z,9.70
2023-02-21T06:27:13.068Z,9.70
2023-02-21T06:30:15.827Z,9.70
2023-02-21T06:33:18.092Z,9.70
2023-02-21T06:36:27.104Z,9.70
2023-02-21T06:39:29.306Z,9.70
2023-02-21T06:42:31.649Z,9.70
2023-02-21T06:45:33.796Z,9.70
2023-02-21T06:48:35.941Z,9.70
2023-02-21T06:51:40.320Z,9.70
2023-02-21T06:54:42.460Z,9.70
2023-02-21T06:57:44.617Z,9.60
2023-02-21T07:00:46.863Z,9.70
2023-02-21T07:03:49.111Z,9.60
2023-02-21T07:06:51.689Z,9.60
2023-02-21T07:09:53.944Z,9.70
2023-02-21T07:12:56.847Z,9.60
2023-02-21T07:15:59.233Z,9.60
2023-02-21T07:19:01.470Z,9.60
2023-02-21T07:22:03.745Z,9.60
2023-02-21T07:25:06.434Z,9.60
2023-02-21T07:28:08.660Z,9.60
2023-02-21T07:31:14.061Z,9.60
2023-02-21T07:34:17.014Z,9.60
2023-02-21T07:37:19.186Z,9.60
2023-02-21T07:40:21.466Z,9.60
2023-02-21T07:43:26.057Z,9.60
2023-02-21T07:46:29.267Z,9.60
2023-02-21T07:49:31.440Z,9.60
2023-02-21T07:52:34.077Z,9.60
2023-02-21T07:55:36.471Z,9.60
2023-02-21T07:58:39.144Z,9.50
2023-02-21T08:01:41.483Z,9.50
2023-02-21T08:04:43.967Z,9.60
2023-02-21T08:07:46.735Z,9.50
2023-02-21T08:10:49.260Z,9.50
2023-02-21T08:13:51.476Z,9.50
2023-02-21T08:16:53.694Z,9.50
2023-02-21T08:19:55.928Z,9.50
2023-02-21T08:22:58.191Z,9.50
2023-02-21T08:26:00.341Z,9.50
2023-02-21T08:29:03.944Z,9.50
2023-02-21T08:32:06.238Z,9.50
2023-02-21T08:35:08.763Z,9.50
2023-02-21T08:38:11.127Z,9.50
2023-02-21T08:41:13.584Z,9.50
2023-02-21T08:44:17.847Z,9.50
2023-02-21T08:47:20.076Z,9.50
2023-02-21T08:50:24.303Z,9.50
2023-02-21T08:53:26.496Z,9.50
2023-02-21T08:56:29.231Z,9.50
2023-02-21T08:59:33.725Z,9.50
2023-02-21T09:02:40.111Z,9.50
2023-02-21T09:05:42.278Z,9.40
2023-02-21T09:08:44.517Z,9.40
2023-02-21T09:11:48.649Z,9.40
2023-02-21T09:14:50.869Z,9.40
2023-02-21T09:17:54.661Z,9.40
2023-02-21T09:20:57.557Z,9.40
2023-02-21T09:24:00.141Z,9.50
2023-02-21T09:27:05.209Z,9.40
2023-02-21T09:30:11.501Z,9.40
2023-02-21T09:33:14.412Z,9.40
2023-02-21T09:36:18.744Z,9.40
2023-02-21T09:39:22.080Z,9.40
2023-02-21T09:42:29.514Z,9.40
2023-02-21T09:45:33.759Z,9.40
2023-02-21T09:48:36.454Z,9.40
2023-02-21T09:51:41.813Z,9.40
2023-02-21T09:54:47.744Z,9.40
2023-02-21T09:57:50.008Z,9.40
2023-02-21T10:00:52.419Z,9.40
2023-02-21T10:04:15.319Z,9.40
2023-02-21T10:07:42.220Z,9.40
2023-02-21T10:10:46.003Z,9.40
2023-02-21T10:14:04.480Z,9.40
2023-02-21T10:17:42.418Z,9.40
2023-02-21T10:20:58.071Z,9.40
2023-02-21T10:24:05.041Z,9.40
2023-02-21T10:27:12.616Z,9.40
2023-02-21T10:30:35.615Z,9.40
2023-02-21T10:33:39.126Z,9.40
2023-02-21T10:36:41.554Z,9.40
2023-02-21T10:39:48.933Z,9.40
2023-02-21T10:42:57.005Z,9.40
2023-02-21T10:46:17.792Z,9.40
2023-02-21T10:49:34.794Z,9.40
2023-02-21T10:52:51.296Z,9.40
2023-02-21T10:56:18.711Z,9.40
2023-02-21T10:59:27.987Z,9.40
2023-02-21T11:02:34.196Z,9.40
2023-02-21T11:05:38.463Z,9.40
2023-02-21T11:08:43.479Z,9.40
2023-02-21T11:11:45.684Z,9.40
2023-02-21T11:14:51.019Z,9.40
2023-02-21T11:18:23.521Z,9.40
2023-02-21T11:21:25.774Z,9.40
2023-02-21T11:24:28.115Z,9.40
2023-02-21T11:27:34.210Z,9.40
2023-02-21T11:30:39.709Z,9.50
2023-02-21T11:33:55.396Z,9.40
2023-02-21T11:37:04.398Z,9.40
2023-02-21T11:40:21.861Z,9.50
2023-02-21T11:43:31.479Z,9.50
2023-02-21T11:46:47.482Z,9.50
2023-02-21T11:50:02.564Z,9.50
2023-02-21T11:53:28.051Z,9.50
2023-02-21T11:56:30.378Z,9.50
2023-02-21T11:59:56.977Z,9.50
2023-02-21T12:02:59.281Z,9.50
2023-02-21T12:06:29.070Z,9.50
2023-02-21T12:09:52.825Z,9.50
2023-02-21T12:13:13.320Z,9.50
2023-02-21T12:16:24.271Z,9.50
2023-02-21T12:19:29.220Z,9.50
2023-02-21T12:23:03.573Z,9.50
2023-02-21T12:26:28.930Z,9.50
2023-02-21T12:29:48.666Z,9.50
2023-02-21T12:33:07.432Z,9.50
2023-02-21T12:36:24.584Z,9.50
2023-02-21T12:39:58.060Z,9.50
2023-02-21T12:43:42.724Z,9.50
2023-02-21T12:47:01.608Z,9.50
2023-02-21T12:50:15.948Z,9.50
2023-02-21T12:53:20.489Z,9.50
2023-02-21T12:56:33.329Z,9.50
2023-02-21T13:00:08.058Z,9.50
2023-02-21T13:03:27.735Z,9.50
2023-02-21T13:06:47.528Z,9.50
2023-02-21T13:10:03.475Z,9.50
2023-02-21T13:13:12.225Z,9.50
2023-02-21T13:16:15.661Z,9.50
2023-02-21T13:19:17.985Z,9.50
2023-02-21T13:23:01.716Z,9.50
2023-02-21T13:26:31.810Z,9.50
2023-02-21T13:29:39.008Z,9.50
2023-02-21T13:32:52.305Z,9.50
2023-02-21T13:35:58.463Z,9.50
2023-02-21T13:39:03.165Z,9.50
2023-02-21T13:42:10.110Z,9.50
2023-02-21T13:45:26.140Z,9.50
2023-02-21T13:48:29.849Z,9.50
2023-02-21T13:51:56.305Z,9.50
2023-02-21T13:55:17.872Z,9.50
2023-02-21T13:58:20.198Z,9.50
2023-02-21T14:01:29.514Z,9.60
2023-02-21T14:04:54.443Z,9.50
2023-02-21T14:08:22.932Z,9.50
2023-02-21T14:11:28.988Z,9.50
2023-02-21T14:14:36.221Z,9.60
2023-02-21T14:17:39.605Z,9.60
2023-02-21T14:20:42.074Z,9.60
2023-02-21T14:24:01.127Z,9.60
2023-02-21T14:27:23.520Z,9.60
2023-02-21T14:30:33.083Z,9.60
2023-02-21T14:33:35.683Z,9.60
2023-02-21T14:36:39.770Z,9.60
2023-02-21T14:39:46.274Z,9.60
2023-02-21T14:43:25.204Z,9.60
2023-02-21T14:46:41.408Z,9.60
2023-02-21T14:50:12.895Z,9.60
2023-02-21T14:53:36.825Z,9.60
2023-02-21T14:57:06.820Z,9.60
2023-02-21T15:00:25.845Z,9.60
2023-02-21T15:04:02.544Z,9.60
2023-02-21T15:07:20.346Z,9.60
2023-02-21T15:10:22.486Z,9.60
2023-02-21T15:13:29.341Z,9.60
2023-02-21T15:16:32.279Z,9.60
2023-02-21T15:19:36.114Z,9.60
2023-02-21T15:22:38.217Z,9.60
2023-02-21T15:25:41.744Z,9.60
2023-02-21T15:28:44.088Z,9.60
2023-02-21T15:31:55.423Z,9.70
2023-02-21T15:34:57.810Z,9.60
2023-02-21T15:38:02.937Z,9.70
2023-02-21T15:41:13.612Z,9.70
2023-02-21T15:44:18.572Z,9.70
2023-02-21T15:47:23.472Z,9.70
2023-02-21T15:50:34.542Z,9.70
2023-02-21T15:53:36.856Z,9.70
2023-02-21T15:56:39.057Z,9.70
2023-02-21T15:59:41.694Z,9.70
2023-02-21T16:02:43.865Z,9.70
2023-02-21T16:05:46.298Z,9.70
2023-02-21T16:09:08.128Z,9.70
2023-02-21T16:12:13.332Z,9.70
2023-02-21T16:15:18.404Z,9.70
2023-02-21T16:18:20.702Z,9.80
2023-02-21T16:21:27.559Z,9.80
2023-02-21T16:24:32.726Z,9.80
2023-02-21T16:27:34.997Z,9.90
2023-02-21T16:30:39.495Z,9.90
2023-02-21T16:33:42.048Z,10.00
2023-02-21T16:36:44.653Z,10.00
2023-02-21T16:39:46.860Z,10.00
2023-02-21T16:42:50.472Z,10.00
2023-02-21T16:45:56.969Z,10.00
2023-02-21T16:49:00.285Z,10.10
2023-02-21T16:52:02.522Z,10.10
2023-02-21T16:55:04.956Z,10.00
2023-02-21T16:58:26.042Z,10.10
2023-02-21T17:01:30.841Z,10.10
2023-02-21T17:04:34.058Z,10.10
2023-02-21T17:07:36.278Z,10.00
2023-02-21T17:10:39.181Z,10.10
2023-02-21T17:13:41.434Z,10.10
2023-02-21T17:16:45.250Z,10.00
2023-02-21T17:19:47.501Z,10.00
2023-02-21T17:22:50.344Z,10.00
2023-02-21T17:25:52.512Z,10.00
2023-02-21T17:28:54.739Z,10.00
2023-02-21T17:31:58.787Z,10.10
2023-02-21T17:35:00.986Z,10.00
2023-02-21T17:38:03.817Z,10.00
2023-02-21T17:41:06.563Z,10.00
2023-02-21T17:44:08.658Z,10.00
2023-02-21T17:47:10.892Z,10.00
2023-02-21T17:50:14.046Z,10.00
2023-02-21T17:53:16.264Z,10.10
2023-02-21T17:56:21.685Z,10.10
2023-02-21T17:59:23.918Z,10.10
2023-02-21T18:02:26.031Z,10.10
2023-02-21T18:05:30.265Z,10.10
2023-02-21T18:08:32.437Z,10.10
2023-02-21T18:11:37.977Z,10.10
2023-02-21T18:14:40.146Z,10.10
2023-02-21T18:17:42.556Z,10.10
2023-02-21T18:20:46.052Z,10.10
2023-02-21T18:23:49.487Z,10.10
2023-02-21T18:26:52.655Z,10.10
2023-02-21T18:29:56.123Z,10.10
2023-02-21T18:32:58.478Z,10.10
2023-02-21T18:36:00.959Z,10.10
2023-02-21T18:39:03.751Z,10.10
2023-02-21T18:42:06.295Z,10.10
2023-02-21T18:45:09.051Z,10.10
2023-02-21T18:48:11.294Z,10.10
2023-02-21T18:51:16.165Z,10.10
2023-02-21T18:54:19.220Z,10.10
2023-02-21T18:57:23.203Z,10.10
2023-02-21T19:00:25.821Z,10.10
2023-02-21T19:03:28.073Z,10.10
2023-02-21T19:06:32.550Z,10.10
2023-02-21T19:09:35.759Z,10.20
2023-02-21T19:12:38.003Z,10.10
2023-02-21T19:15:40.276Z,10.10
2023-02-21T19:18:42.494Z,10.10
2023-02-21T19:21:45.325Z,10.10
2023-02-21T19:24:47.464Z,10.10
2023-02-21T19:27:49.604Z,10.10
2023-02-21T19:30:51.977Z,10.10
2023-02-21T19:33:54.284Z,10.10
2023-02-21T19:36:57.207Z,10.10
2023-02-21T19:39:59.474Z,10.20
2023-02-21T19:43:02.696Z,10.10
2023-02-21T19:46:05.437Z,10.10
2023-02-21T19:49:14.694Z,10.10
2023-02-21T19:52:16.988Z,10.10
2023-02-21T19:55:19.341Z,10.20
2023-02-21T19:58:21.935Z,10.20
2023-02-21T20:01:26.577Z,10.10
2023-02-21T20:04:28.843Z,10.20
2023-02-21T20:07:31.148Z,10.20
2023-02-21T20:10:33.313Z,10.20
2023-02-21T20:13:37.168Z,10.20
2023-02-21T20:16:41.424Z,10.20
2023-02-21T20:19:44.118Z,10.20
2023-02-21T20:22:46.328Z,10.20
2023-02-21T20:25:49.229Z,10.20
2023-02-21T20:28:52.997Z,10.20
2023-02-21T20:31:55.697Z,10.20
2023-02-21T20:34:57.918Z,10.20
2023-02-21T20:38:05.362Z,10.20
2023-02-21T20:41:13.942Z,10.20
2023-02-21T20:44:16.668Z,10.20
2023-02-21T20:47:19.892Z,10.20
2023-02-21T20:50:24.137Z,10.20
2023-02-21T20:53:27.738Z,10.20
2023-02-21T20:56:36.713Z,10.20
2023-02-21T20:59:39.888Z,10.20
2023-02-21T21:02:42.676Z,10.20
2023-02-21T21:05:45.426Z,10.20
2023-02-21T21:08:47.660Z,10.20
2023-02-21T21:11:49.858Z,10.20
2023-02-21T21:14:55.288Z,10.20
2023-02-21T21:17:57.443Z,10.20
2023-02-21T21:20:59.616Z,10.20
2023-02-21T21:24:01.963Z,10.20
2023-02-21T21:27:08.642Z,10.20
2023-02-21T21:30:13.319Z,10.20
2023-02-21T21:33:19.578Z,10.20
2023-02-21T21:36:21.744Z,10.20
2023-02-21T21:39:25.321Z,10.20
2023-02-21T21:42:29.374Z,10.20
2023-02-21T21:45:33.007Z,10.20
2023-02-21T21:48:35.215Z,10.20
2023-02-21T21:51:37.796Z,10.20
2023-02-21T21:54:42.827Z,10.20
2023-02-21T21:57:45.261Z,10.20
2023-02-21T22:00:47.527Z,10.20
2023-02-21T22:03:51.290Z,10.20
2023-02-21T22:06:55.757Z,10.20
2023-02-21T22:09:58.005Z,10.20
2023-02-21T22:13:00.718Z,10.20
2023-02-21T22:16:03.088Z,10.20
2023-02-21T22:19:05.432Z,10.20
2023-02-21T22:22:08.480Z,10.20
2023-02-21T22:25:13.237Z,10.20
2023-02-21T22:28:15.773Z,10.20
2023-02-21T22:31:19.016Z,10.20
2023-02-21T22:34:24.575Z,10.20
2023-02-21T22:37:26.744Z,10.20
2023-02-21T22:40:30.727Z,10.20
2023-02-21T22:43:32.839Z,10.20
2023-02-21T22:46:58.417Z,10.20
2023-02-21T22:50:00.938Z,10.20
2023-02-21T22:53:08.006Z,10.20
2023-02-21T22:56:14.961Z,10.20
2023-02-21T22:59:24.380Z,10.20
2023-02-21T23:02:28.959Z,10.20
2023-02-21T23:05:31.565Z,10.20
2023-02-21T23:08:36.896Z,10.20
2023-02-21T23:11:41.734Z,10.20
2023-02-21T23:14:48.204Z,10.20
2023-02-21T23:17:51.536Z,10.20
2023-02-21T23:20:56.044Z,10.20
2023-02-21T23:23:58.532Z,10.20
2023-02-21T23:27:03.066Z,10.20
2023-02-21T23:30:08.422Z,10.20
2023-02-21T23:33:16.832Z,10.20
2023-02-21T23:36:22.893Z,10.20
2023-02-21T23:39:25.639Z,10.30
2023-02-21T23:42:31.471Z,10.20
2023-02-21T23:45:33.549Z,10.20
2023-02-21T23:48:37.642Z,10.20
2023-02-21T23:51:42.451Z,10.20
2023-02-21T23:54:44.901Z,10.20
2023-02-21T23:57:47.304Z,10.20
